Time;durP1;ratioP1;P1;durP2;ratioP2;P2;SDS_P1;SDS_P2;PMS_P1;PMS_P2;Temp;Humidity;BMP_temperature;BMP_pressure;BME280_temperature;BME280_humidity;BME280_pressure;Samples;Min_cycle;Max_cycle;Signal;HPM_P1;HPM_P2
2022/10/18 00:01:08;;;;;;;;;;;7.50;99.90;;;;;;5092156;28;19948;-75
2022/10/18 00:03:33;;;;;;;;;;;7.40;99.90;;;;;;5092222;28;19920;-75
2022/10/18 00:06:00;;;;;;;;;;;7.30;99.90;;;;;;5092349;28;19908;-74
2022/10/18 00:08:25;;;;;;;;;;;7.30;99.90;;;;;;5092495;28;19954;-75
2022/10/18 00:10:51;;;;;;;;;;;7.30;99.90;;;;;;5091859;28;20732;-74
2022/10/18 00:13:16;;;;;;;;;;;7.40;99.90;;;;;;5092580;28;19915;-76
2022/10/18 00:15:52;;;;;;;;;;;7.40;99.90;;;;;;5091589;28;19988;-75
2022/10/18 00:18:18;;;;;;;;;;;7.40;99.90;;;;;;5092471;28;19917;-75
2022/10/18 00:20:43;;;;;;;;;;;7.40;99.90;;;;;;5091166;28;19908;-74
2022/10/18 00:23:09;;;;;;;;;;;7.40;99.90;;;;;;5091421;28;19915;-75
2022/10/18 00:25:34;;;;;;;;;;;7.30;99.90;;;;;;5091872;28;19908;-76
2022/10/18 00:28:00;;;;;;;;;;;7.30;99.90;;;;;;5092633;28;19915;-74
2022/10/18 00:30:26;;;;;;;;;;;7.30;99.90;;;;;;5092082;28;19928;-74
2022/10/18 00:32:51;;;;;;;;;;;7.30;99.90;;;;;;5092053;28;20354;-74
2022/10/18 00:35:17;;;;;;;;;;;7.30;99.90;;;;;;5092424;28;19994;-74
2022/10/18 00:37:42;;;;;;;;;;;7.30;99.90;;;;;;5091626;28;19928;-76
2022/10/18 00:40:08;;;;;;;;;;;7.10;99.90;;;;;;5092306;28;19908;-75
2022/10/18 00:42:35;;;;;;;;;;;7.10;99.90;;;;;;5091436;28;19920;-75
2022/10/18 00:45:17;;;;;;;;;;;7.10;99.90;;;;;;5091927;28;19912;-75
2022/10/18 00:47:44;;;;;;;;;;;6.90;99.90;;;;;;5091393;28;19985;-75
2022/10/18 00:50:10;;;;;;;;;;;7.00;99.90;;;;;;5093316;28;19952;-74
2022/10/18 00:52:39;;;;;;;;;;;6.90;99.90;;;;;;5075245;28;20446;-75
2022/10/18 00:55:05;;;;;;;;;;;6.90;99.90;;;;;;5075422;28;19917;-75
2022/10/18 00:57:30;;;;;;;;;;;6.90;99.90;;;;;;5075133;28;19916;-74
2022/10/18 00:59:56;;;;;;;;;;;6.90;99.90;;;;;;5074667;28;19912;-75
2022/10/18 01:02:22;;;;;;;;;;;7.00;99.90;;;;;;5075237;28;20007;-74
2022/10/18 01:04:48;;;;;;;;;;;6.90;99.90;;;;;;5074239;28;19915;-75
2022/10/18 01:07:19;;;;;;;;;;;6.90;99.90;;;;;;5073851;28;19912;-74
2022/10/18 01:09:48;;;;;;;;;;;6.90;99.90;;;;;;5074797;28;19920;-75
2022/10/18 01:12:32;;;;;;;;;;;6.90;99.90;;;;;;5075337;28;19912;-74
2022/10/18 01:15:14;;;;;;;;;;;6.90;99.90;;;;;;5074798;28;19912;-75
2022/10/18 01:17:43;;;;;;;;;;;7.00;99.90;;;;;;5074560;28;19966;-75
2022/10/18 01:20:08;;;;;;;;;;;7.00;99.90;;;;;;5075207;28;19940;-75
2022/10/18 01:22:41;;;;;;;;;;;6.90;99.90;;;;;;5075212;28;20321;-75
2022/10/18 01:25:31;;;;;;;;;;;6.90;99.90;;;;;;5074411;28;20273;-75
2022/10/18 01:27:59;;;;;;;;;;;6.90;99.90;;;;;;5074028;28;19904;-74
2022/10/18 01:30:25;;;;;;;;;;;6.90;99.90;;;;;;5074670;28;19928;-74
2022/10/18 01:32:53;;;;;;;;;;;6.80;99.90;;;;;;5074381;28;20350;-74
2022/10/18 01:35:26;;;;;;;;;;;6.80;99.90;;;;;;5074774;28;20396;-75
2022/10/18 01:37:53;;;;;;;;;;;6.70;99.90;;;;;;5073617;28;19917;-74
2022/10/18 01:40:21;;;;;;;;;;;6.60;99.90;;;;;;5075296;28;19912;-74
2022/10/18 01:42:47;;;;;;;;;;;6.60;99.90;;;;;;5072770;28;19916;-74
2022/10/18 01:45:14;;;;;;;;;;;6.60;99.90;;;;;;5074699;28;19909;-74
2022/10/18 01:47:41;;;;;;;;;;;6.60;99.90;;;;;;5073954;28;20265;-75
2022/10/18 01:50:06;;;;;;;;;;;6.50;99.90;;;;;;5074107;28;19916;-75
2022/10/18 01:52:32;;;;;;;;;;;6.50;99.90;;;;;;5074127;28;19909;-75
2022/10/18 01:54:59;;;;;;;;;;;6.40;99.90;;;;;;5073941;28;19969;-76
2022/10/18 01:57:33;;;;;;;;;;;6.50;99.90;;;;;;5072692;28;19908;-74
2022/10/18 02:00:11;;;;;;;;;;;6.50;99.90;;;;;;5072037;28;20054;-75
2022/10/18 02:02:46;;;;;;;;;;;6.40;99.90;;;;;;5074265;28;20360;-74
2022/10/18 02:05:21;;;;;;;;;;;6.40;99.90;;;;;;5074311;28;19971;-74
2022/10/18 02:07:52;;;;;;;;;;;6.30;99.90;;;;;;5073636;28;19912;-74
2022/10/18 02:10:28;;;;;;;;;;;6.40;99.90;;;;;;5074123;28;20403;-75
2022/10/18 02:12:55;;;;;;;;;;;6.20;99.90;;;;;;5073562;28;19913;-74
2022/10/18 02:15:22;;;;;;;;;;;6.20;99.90;;;;;;5072849;28;19919;-74
2022/10/18 02:17:49;;;;;;;;;;;6.20;99.90;;;;;;5072713;28;19921;-74
2022/10/18 02:20:16;;;;;;;;;;;6.10;99.90;;;;;;5072157;28;20426;-75
2022/10/18 02:22:44;;;;;;;;;;;6.10;99.90;;;;;;5073445;28;19995;-75
2022/10/18 02:25:15;;;;;;;;;;;6.20;99.90;;;;;;5073976;28;19944;-75
2022/10/18 02:27:40;;;;;;;;;;;6.20;99.90;;;;;;5073055;28;19909;-75
2022/10/18 02:30:06;;;;;;;;;;;6.20;99.90;;;;;;5073168;28;19981;-75
2022/10/18 02:32:38;;;;;;;;;;;6.20;99.90;;;;;;5073600;28;20001;-75
2022/10/18 02:35:06;;;;;;;;;;;6.30;99.90;;;;;;5072111;28;19913;-75
2022/10/18 02:37:34;;;;;;;;;;;6.20;99.90;;;;;;5073536;28;19908;-74
2022/10/18 02:40:00;;;;;;;;;;;6.10;99.90;;;;;;5072696;28;20043;-75
2022/10/18 02:42:32;;;;;;;;;;;6.20;99.90;;;;;;5073607;28;20428;-75
2022/10/18 02:44:57;;;;;;;;;;;6.10;99.90;;;;;;5073062;28;20353;-75
2022/10/18 02:47:23;;;;;;;;;;;6.10;99.90;;;;;;5073720;28;19916;-75
2022/10/18 02:49:48;;;;;;;;;;;6.10;99.90;;;;;;5071178;28;20324;-75
2022/10/18 02:52:14;;;;;;;;;;;6.00;99.90;;;;;;5073234;28;19912;-75
2022/10/18 02:54:39;;;;;;;;;;;6.00;99.90;;;;;;5073077;28;19909;-75
2022/10/18 02:57:05;;;;;;;;;;;6.00;99.90;;;;;;5073162;28;19918;-75
2022/10/18 02:59:31;;;;;;;;;;;6.00;99.90;;;;;;5072763;28;19923;-75
2022/10/18 03:01:57;;;;;;;;;;;5.90;99.90;;;;;;5071370;28;19909;-75
2022/10/18 03:04:22;;;;;;;;;;;5.90;99.90;;;;;;5072501;28;20250;-75
2022/10/18 03:06:48;;;;;;;;;;;5.90;99.90;;;;;;5072606;28;19912;-75
2022/10/18 03:09:13;;;;;;;;;;;5.80;99.90;;;;;;5073085;28;19912;-75
2022/10/18 03:11:39;;;;;;;;;;;5.80;99.90;;;;;;5071026;28;19962;-75
2022/10/18 03:14:04;;;;;;;;;;;5.80;99.90;;;;;;5072373;28;19913;-75
2022/10/18 03:16:30;;;;;;;;;;;5.90;99.90;;;;;;5072946;28;20384;-75
2022/10/18 03:18:56;;;;;;;;;;;5.90;99.90;;;;;;5072067;28;19916;-75
2022/10/18 03:21:21;;;;;;;;;;;5.90;99.90;;;;;;5072901;28;19916;-75
2022/10/18 03:23:47;;;;;;;;;;;5.80;99.90;;;;;;5070853;28;20335;-75
2022/10/18 03:26:13;;;;;;;;;;;5.70;99.90;;;;;;5072793;28;19915;-74
2022/10/18 03:28:38;;;;;;;;;;;5.70;99.90;;;;;;5072657;28;20370;-75
2022/10/18 03:31:04;;;;;;;;;;;5.60;99.90;;;;;;5071564;28;19978;-75
2022/10/18 03:33:30;;;;;;;;;;;5.60;99.90;;;;;;5084118;28;20262;-75
2022/10/18 03:35:56;;;;;;;;;;;5.60;99.90;;;;;;5071900;28;19908;-75
2022/10/18 03:38:22;;;;;;;;;;;5.60;99.90;;;;;;5071336;28;19924;-75
2022/10/18 03:40:47;;;;;;;;;;;5.70;99.90;;;;;;5071845;28;19908;-75
2022/10/18 03:43:13;;;;;;;;;;;5.70;99.90;;;;;;5072221;28;19978;-75
2022/10/18 03:45:38;;;;;;;;;;;5.70;99.90;;;;;;5072213;28;19909;-75
2022/10/18 03:48:04;;;;;;;;;;;5.60;99.90;;;;;;5072053;28;20385;-75
2022/10/18 03:50:30;;;;;;;;;;;5.70;99.90;;;;;;5072546;28;19961;-75
2022/10/18 03:52:55;;;;;;;;;;;5.70;99.90;;;;;;5072004;28;19908;-75
2022/10/18 03:55:21;;;;;;;;;;;5.70;99.90;;;;;;5071719;28;19916;-75
2022/10/18 03:57:47;;;;;;;;;;;5.70;99.90;;;;;;5070972;28;20443;-75
2022/10/18 04:00:12;;;;;;;;;;;5.80;99.90;;;;;;5072695;28;20277;-74
2022/10/18 04:02:38;;;;;;;;;;;5.70;99.90;;;;;;5071925;28;19915;-73
2022/10/18 04:05:04;;;;;;;;;;;5.70;99.90;;;;;;5071846;28;20063;-75
2022/10/18 04:07:30;;;;;;;;;;;5.70;99.90;;;;;;5072247;28;19909;-74
2022/10/18 04:09:55;;;;;;;;;;;5.70;99.90;;;;;;5071927;28;19944;-74
2022/10/18 04:12:21;;;;;;;;;;;5.70;99.90;;;;;;5072437;28;20427;-75
2022/10/18 04:14:47;;;;;;;;;;;5.70;99.90;;;;;;5071911;28;19925;-75
2022/10/18 04:17:12;;;;;;;;;;;5.60;99.90;;;;;;5072519;28;19912;-75
2022/10/18 04:19:38;;;;;;;;;;;5.60;99.90;;;;;;5072284;28;19924;-75
2022/10/18 04:22:03;;;;;;;;;;;5.60;99.90;;;;;;5071616;28;19908;-74
2022/10/18 04:24:29;;;;;;;;;;;5.50;99.90;;;;;;5074498;28;19909;-75
2022/10/18 04:26:54;;;;;;;;;;;5.50;99.90;;;;;;5075641;28;19985;-75
2022/10/18 04:29:20;;;;;;;;;;;5.50;99.90;;;;;;5075731;28;19908;-73
2022/10/18 04:31:45;;;;;;;;;;;5.40;99.90;;;;;;5075322;28;20422;-75
2022/10/18 04:34:11;;;;;;;;;;;5.40;99.90;;;;;;5076142;28;19910;-74
2022/10/18 04:36:36;;;;;;;;;;;5.40;99.90;;;;;;5076234;28;19916;-75
2022/10/18 04:39:02;;;;;;;;;;;5.50;99.90;;;;;;5075314;28;20047;-75
2022/10/18 04:41:28;;;;;;;;;;;5.40;99.90;;;;;;5074612;28;20302;-75
2022/10/18 04:43:53;;;;;;;;;;;5.50;99.90;;;;;;5075297;28;19912;-74
2022/10/18 04:46:19;;;;;;;;;;;5.40;99.90;;;;;;5076030;28;19938;-74
2022/10/18 04:48:44;;;;;;;;;;;5.40;99.90;;;;;;5075345;28;19909;-74
2022/10/18 04:51:10;;;;;;;;;;;5.40;99.90;;;;;;5074147;28;20259;-74
2022/10/18 04:53:36;;;;;;;;;;;5.40;99.90;;;;;;5073926;28;20377;-73
2022/10/18 04:56:02;;;;;;;;;;;5.40;99.90;;;;;;5075005;28;20363;-74
2022/10/18 04:58:27;;;;;;;;;;;5.40;99.90;;;;;;5074167;28;19920;-75
2022/10/18 05:00:53;;;;;;;;;;;5.40;99.90;;;;;;5074897;28;19946;-75
2022/10/18 05:03:19;;;;;;;;;;;5.40;99.90;;;;;;5075522;28;19908;-75
2022/10/18 05:05:44;;;;;;;;;;;5.30;99.90;;;;;;5075201;28;20313;-74
2022/10/18 05:08:10;;;;;;;;;;;5.30;99.90;;;;;;5074656;28;20304;-74
2022/10/18 05:10:36;;;;;;;;;;;5.30;99.90;;;;;;5091145;28;19938;-74
2022/10/18 05:13:02;;;;;;;;;;;5.40;99.90;;;;;;5074743;28;19916;-73
2022/10/18 05:15:27;;;;;;;;;;;5.30;99.90;;;;;;5075051;28;20031;-73
2022/10/18 05:17:53;;;;;;;;;;;5.20;99.90;;;;;;5074476;28;20365;-74
2022/10/18 05:20:18;;;;;;;;;;;5.10;99.90;;;;;;5074263;28;19915;-74
2022/10/18 05:22:44;;;;;;;;;;;5.20;99.90;;;;;;5075366;28;20072;-74
2022/10/18 05:25:10;;;;;;;;;;;5.20;99.90;;;;;;5072479;28;19915;-74
2022/10/18 05:27:35;;;;;;;;;;;5.30;99.90;;;;;;5074641;28;19908;-74
2022/10/18 05:30:01;;;;;;;;;;;5.20;99.90;;;;;;5074158;28;19969;-75
2022/10/18 05:32:26;;;;;;;;;;;5.20;99.90;;;;;;5074891;28;19912;-74
2022/10/18 05:34:52;;;;;;;;;;;5.20;99.90;;;;;;5073743;28;20388;-75
2022/10/18 05:37:17;;;;;;;;;;;5.20;99.90;;;;;;5073372;28;19909;-73
2022/10/18 05:39:43;;;;;;;;;;;5.20;99.90;;;;;;5074951;28;19916;-75
2022/10/18 05:42:09;;;;;;;;;;;5.10;99.90;;;;;;5073810;28;20202;-74
2022/10/18 05:44:34;;;;;;;;;;;5.20;99.90;;;;;;5073977;28;19915;-74
2022/10/18 05:47:00;;;;;;;;;;;5.20;99.90;;;;;;5072404;28;19909;-74
2022/10/18 05:49:26;;;;;;;;;;;5.10;99.90;;;;;;5074397;28;19961;-74
2022/10/18 05:51:51;;;;;;;;;;;5.20;99.90;;;;;;5073942;28;19916;-74
2022/10/18 05:54:17;;;;;;;;;;;5.10;99.90;;;;;;5074785;28;19908;-74
2022/10/18 05:56:42;;;;;;;;;;;5.20;99.90;;;;;;5074586;28;20370;-75
2022/10/18 05:59:11;;;;;;;;;;;5.10;99.90;;;;;;5073544;28;19913;-75
2022/10/18 06:01:40;;;;;;;;;;;5.10;99.90;;;;;;5073031;28;20427;-75
2022/10/18 06:04:06;;;;;;;;;;;5.10;99.90;;;;;;5073639;28;19908;-75
2022/10/18 06:06:32;;;;;;;;;;;5.10;99.90;;;;;;5074035;28;19916;-75
2022/10/18 06:08:57;;;;;;;;;;;5.10;99.90;;;;;;5073401;28;19908;-74
2022/10/18 06:11:23;;;;;;;;;;;5.10;99.90;;;;;;5074295;28;19908;-74
2022/10/18 06:13:50;;;;;;;;;;;5.00;99.90;;;;;;5074100;28;19962;-75
2022/10/18 06:16:17;;;;;;;;;;;5.10;99.90;;;;;;5073564;28;19919;-74
2022/10/18 06:18:42;;;;;;;;;;;5.10;99.90;;;;;;5073774;28;19969;-74
2022/10/18 06:21:08;;;;;;;;;;;5.20;99.90;;;;;;5073645;28;19918;-74
2022/10/18 06:23:34;;;;;;;;;;;5.10;99.90;;;;;;5073862;28;20008;-74
2022/10/18 06:26:00;;;;;;;;;;;5.20;99.90;;;;;;5073235;28;19931;-74
2022/10/18 06:28:27;;;;;;;;;;;5.10;99.90;;;;;;5073570;28;19908;-74
2022/10/18 06:30:53;;;;;;;;;;;5.10;99.90;;;;;;5068594;28;19967;-75
2022/10/18 06:33:18;;;;;;;;;;;5.20;99.90;;;;;;5090413;28;19947;-74
2022/10/18 06:35:52;;;;;;;;;;;5.20;99.90;;;;;;5091158;28;19919;-74
2022/10/18 06:38:18;;;;;;;;;;;5.20;99.90;;;;;;5092327;28;19920;-74
2022/10/18 06:40:46;;;;;;;;;;;5.20;99.90;;;;;;5092080;28;19919;-75
2022/10/18 06:43:11;;;;;;;;;;;5.20;99.90;;;;;;5091916;28;19904;-74
2022/10/18 06:45:37;;;;;;;;;;;5.20;99.90;;;;;;5065550;28;20343;-74
2022/10/18 06:48:02;;;;;;;;;;;5.30;99.90;;;;;;5061661;28;19909;-74
2022/10/18 06:50:28;;;;;;;;;;;5.10;99.90;;;;;;5060682;28;19909;-74
2022/10/18 06:52:53;;;;;;;;;;;5.00;99.90;;;;;;5072199;28;19916;-74
2022/10/18 06:55:19;;;;;;;;;;;5.00;99.90;;;;;;5072545;28;20463;-74
2022/10/18 06:57:45;;;;;;;;;;;4.90;99.90;;;;;;5072688;28;19912;-73
2022/10/18 07:00:11;;;;;;;;;;;4.90;99.90;;;;;;5072409;28;19909;-75
2022/10/18 07:02:40;;;;;;;;;;;5.00;99.90;;;;;;5071609;28;20311;-73
2022/10/18 07:05:08;;;;;;;;;;;5.00;99.90;;;;;;5072495;28;19908;-74
2022/10/18 07:07:34;;;;;;;;;;;5.10;99.90;;;;;;5072729;28;19912;-74
2022/10/18 07:10:00;;;;;;;;;;;5.20;99.90;;;;;;5071556;28;20243;-74
2022/10/18 07:12:25;;;;;;;;;;;5.20;99.90;;;;;;5072209;28;19908;-74
2022/10/18 07:14:51;;;;;;;;;;;5.20;99.90;;;;;;5073038;28;19931;-74
2022/10/18 07:17:16;;;;;;;;;;;5.20;99.90;;;;;;5072592;28;20000;-74
2022/10/18 07:19:42;;;;;;;;;;;5.20;99.90;;;;;;5070234;28;19917;-74
2022/10/18 07:22:07;;;;;;;;;;;5.30;99.90;;;;;;5072173;28;19996;-74
2022/10/18 07:24:33;;;;;;;;;;;5.30;99.90;;;;;;5071280;28;19909;-74
2022/10/18 07:26:58;;;;;;;;;;;5.40;99.90;;;;;;5089489;28;19930;-74
2022/10/18 07:29:24;;;;;;;;;;;5.40;99.90;;;;;;5088821;28;19916;-73
2022/10/18 07:31:49;;;;;;;;;;;5.40;99.90;;;;;;5090901;28;19965;-74
2022/10/18 07:34:15;;;;;;;;;;;5.50;99.90;;;;;;5074153;28;19956;-75
2022/10/18 07:36:41;;;;;;;;;;;5.60;99.90;;;;;;5071308;28;20373;-74
2022/10/18 07:39:06;;;;;;;;;;;5.70;99.90;;;;;;5071737;28;20451;-74
2022/10/18 07:41:33;;;;;;;;;;;5.70;99.90;;;;;;5072151;28;19908;-74
2022/10/18 07:43:59;;;;;;;;;;;5.80;99.90;;;;;;5083050;28;19908;-75
2022/10/18 07:46:24;;;;;;;;;;;6.00;99.90;;;;;;5091612;28;19913;-74
2022/10/18 07:48:50;;;;;;;;;;;6.10;99.90;;;;;;5071120;28;19909;-75
2022/10/18 07:51:16;;;;;;;;;;;6.10;99.90;;;;;;5071577;28;19913;-74
2022/10/18 07:53:42;;;;;;;;;;;6.10;99.90;;;;;;5072331;28;19916;-74
2022/10/18 07:56:14;;;;;;;;;;;6.20;99.90;;;;;;5069282;28;19909;-74
2022/10/18 07:58:40;;;;;;;;;;;6.20;99.90;;;;;;5075983;28;19977;-74
2022/10/18 08:01:07;;;;;;;;;;;6.20;99.90;;;;;;5075496;28;19909;-74
2022/10/18 08:03:33;;;;;;;;;;;6.30;99.90;;;;;;5075890;28;20388;-73
2022/10/18 08:05:58;;;;;;;;;;;6.40;99.90;;;;;;5075781;28;19912;-75
2022/10/18 08:08:24;;;;;;;;;;;6.50;99.90;;;;;;5075865;28;19913;-74
2022/10/18 08:10:50;;;;;;;;;;;6.60;99.90;;;;;;5075673;28;19908;-74
2022/10/18 08:13:16;;;;;;;;;;;6.70;99.90;;;;;;5074652;28;19913;-73
2022/10/18 08:15:41;;;;;;;;;;;6.90;99.90;;;;;;5075870;28;19947;-73
2022/10/18 08:18:07;;;;;;;;;;;7.10;99.90;;;;;;5075052;28;19923;-73
2022/10/18 08:20:32;;;;;;;;;;;7.20;99.90;;;;;;5075843;28;19999;-73
2022/10/18 08:22:58;;;;;;;;;;;7.30;99.90;;;;;;5075084;28;19914;-73
2022/10/18 08:25:24;;;;;;;;;;;7.30;99.90;;;;;;5076004;28;19912;-73
2022/10/18 08:27:49;;;;;;;;;;;7.40;99.90;;;;;;5074228;28;19916;-73
2022/10/18 08:30:16;;;;;;;;;;;7.50;99.90;;;;;;5073079;28;19938;-73
2022/10/18 08:32:41;;;;;;;;;;;7.50;99.90;;;;;;5074804;28;19915;-73
2022/10/18 08:35:07;;;;;;;;;;;7.70;99.90;;;;;;5074554;28;19912;-73
2022/10/18 08:37:33;;;;;;;;;;;7.80;99.90;;;;;;5073688;28;19954;-73
2022/10/18 08:39:58;;;;;;;;;;;7.90;99.90;;;;;;5075282;28;20409;-73
2022/10/18 08:42:27;;;;;;;;;;;8.10;99.90;;;;;;5074168;28;19913;-73
2022/10/18 08:44:53;;;;;;;;;;;8.20;99.90;;;;;;5075560;28;19909;-74
2022/10/18 08:47:35;;;;;;;;;;;8.20;99.90;;;;;;5074690;28;20406;-73
2022/10/18 08:50:02;;;;;;;;;;;8.30;99.90;;;;;;5074028;28;19908;-73
2022/10/18 08:52:34;;;;;;;;;;;8.30;99.90;;;;;;5074933;28;19916;-73
2022/10/18 08:55:02;;;;;;;;;;;8.50;99.90;;;;;;5074370;28;19909;-73
2022/10/18 08:57:27;;;;;;;;;;;8.50;99.90;;;;;;5074957;28;19916;-73
2022/10/18 08:59:53;;;;;;;;;;;8.60;99.90;;;;;;5075253;28;20383;-74
2022/10/18 09:02:37;;;;;;;;;;;8.80;99.90;;;;;;5074624;28;20362;-74
2022/10/18 09:05:06;;;;;;;;;;;8.90;99.90;;;;;;5073493;28;19961;-73
2022/10/18 09:07:31;;;;;;;;;;;8.90;99.90;;;;;;5075134;28;19915;-73
2022/10/18 09:10:15;;;;;;;;;;;9.20;99.90;;;;;;5073733;28;20342;-75
2022/10/18 09:12:47;;;;;;;;;;;9.20;99.90;;;;;;5075024;28;19908;-73
2022/10/18 09:15:21;;;;;;;;;;;9.40;99.90;;;;;;5074096;28;19908;-73
2022/10/18 09:17:53;;;;;;;;;;;9.30;99.90;;;;;;5074243;28;19912;-72
2022/10/18 09:20:26;;;;;;;;;;;9.50;99.90;;;;;;5074466;28;19919;-74
2022/10/18 09:22:52;;;;;;;;;;;9.60;99.90;;;;;;5074597;28;19908;-74
2022/10/18 09:25:34;;;;;;;;;;;9.70;99.90;;;;;;5074408;28;20728;-74
2022/10/18 09:28:00;;;;;;;;;;;9.80;99.90;;;;;;5073458;28;19991;-73
2022/10/18 09:30:26;;;;;;;;;;;10.00;99.90;;;;;;5074069;28;19968;-74
2022/10/18 09:32:56;;;;;;;;;;;9.90;99.90;;;;;;5074279;28;19915;-73
2022/10/18 09:35:45;;;;;;;;;;;10.20;99.90;;;;;;5074522;28;19912;-73
2022/10/18 09:38:14;;;;;;;;;;;10.40;99.90;;;;;;5067592;28;19916;-74
2022/10/18 09:40:55;;;;;;;;;;;10.80;99.90;;;;;;5072892;28;19908;-74
2022/10/18 09:43:23;;;;;;;;;;;10.90;99.90;;;;;;5074054;28;19909;-73
2022/10/18 09:45:49;;;;;;;;;;;11.00;99.90;;;;;;5074520;28;20001;-73
2022/10/18 09:48:36;;;;;;;;;;;11.00;99.90;;;;;;5074089;28;19909;-73
2022/10/18 09:51:10;;;;;;;;;;;11.10;99.90;;;;;;5073184;28;20003;-73
2022/10/18 09:54:14;;;;;;;;;;;11.20;99.90;;;;;;5073708;28;19950;-74
2022/10/18 09:56:39;;;;;;;;;;;11.30;99.90;;;;;;5032077;28;19909;-74
2022/10/18 09:59:11;;;;;;;;;;;11.50;99.90;;;;;;5030741;28;20043;-73
2022/10/18 10:01:36;;;;;;;;;;;11.50;99.90;;;;;;5031696;28;19999;-73
2022/10/18 10:04:02;;;;;;;;;;;11.70;99.90;;;;;;5030965;28;20000;-74
2022/10/18 10:06:33;;;;;;;;;;;11.90;99.90;;;;;;5031707;28;19916;-72
2022/10/18 10:09:07;;;;;;;;;;;11.90;99.90;;;;;;5030848;28;19975;-74
2022/10/18 10:11:34;;;;;;;;;;;12.00;99.90;;;;;;5031369;28;19909;-73
2022/10/18 10:14:07;;;;;;;;;;;12.00;99.90;;;;;;5031172;28;19992;-74
2022/10/18 10:16:33;;;;;;;;;;;12.10;99.90;;;;;;5031775;28;19909;-74
2022/10/18 10:18:58;;;;;;;;;;;12.00;99.90;;;;;;5031133;28;19921;-74
2022/10/18 10:21:24;;;;;;;;;;;12.20;99.90;;;;;;5029953;28;19921;-72
2022/10/18 10:23:51;;;;;;;;;;;12.20;99.90;;;;;;5031085;28;19909;-73
2022/10/18 10:26:20;;;;;;;;;;;12.30;99.90;;;;;;5032596;28;19913;-74
2022/10/18 10:28:47;;;;;;;;;;;12.20;99.90;;;;;;5073076;28;20263;-74
2022/10/18 10:31:28;;;;;;;;;;;12.20;99.90;;;;;;5072305;28;20007;-73
2022/10/18 10:34:17;;;;;;;;;;;12.30;99.90;;;;;;5072268;28;19908;-74
2022/10/18 10:36:49;;;;;;;;;;;12.30;99.90;;;;;;5067664;28;19915;-74
2022/10/18 10:39:18;;;;;;;;;;;12.30;99.90;;;;;;5073051;28;19964;-74
2022/10/18 10:41:48;;;;;;;;;;;12.40;99.90;;;;;;5092345;28;19919;-73
2022/10/18 10:44:15;;;;;;;;;;;12.40;99.90;;;;;;5093236;28;19999;-74
2022/10/18 10:46:40;;;;;;;;;;;12.40;99.90;;;;;;5093773;28;19915;-73
2022/10/18 10:49:15;;;;;;;;;;;12.40;99.90;;;;;;5092886;28;19908;-74
2022/10/18 10:51:42;;;;;;;;;;;12.60;99.90;;;;;;5093664;28;19908;-74
2022/10/18 10:54:12;;;;;;;;;;;12.80;99.90;;;;;;5091437;28;20007;-75
2022/10/18 10:56:50;;;;;;;;;;;12.80;99.90;;;;;;5092777;28;19915;-74
2022/10/18 10:59:17;;;;;;;;;;;13.10;99.90;;;;;;5091994;28;20353;-74
2022/10/18 11:01:46;;;;;;;;;;;13.10;99.90;;;;;;5093005;28;19983;-74
2022/10/18 11:04:29;;;;;;;;;;;13.00;99.90;;;;;;5092847;28;20292;-74
2022/10/18 11:06:57;;;;;;;;;;;13.10;99.90;;;;;;5091404;28;20381;-74
2022/10/18 11:09:26;;;;;;;;;;;13.20;99.90;;;;;;5092932;28;19909;-75
2022/10/18 11:11:57;;;;;;;;;;;13.10;99.90;;;;;;5093167;28;19908;-74
2022/10/18 11:14:26;;;;;;;;;;;13.30;99.90;;;;;;5092499;28;19988;-74
2022/10/18 11:17:10;;;;;;;;;;;13.60;99.90;;;;;;5093468;28;19935;-74
2022/10/18 11:19:39;;;;;;;;;;;13.50;99.90;;;;;;5091864;28;19920;-73
2022/10/18 11:22:08;;;;;;;;;;;13.60;99.90;;;;;;5092481;28;19916;-74
2022/10/18 11:24:34;;;;;;;;;;;13.80;99.90;;;;;;5092664;28;20369;-75
2022/10/18 11:27:23;;;;;;;;;;;13.80;99.90;;;;;;5092558;28;19909;-74
2022/10/18 11:29:57;;;;;;;;;;;14.10;99.90;;;;;;5084110;28;20015;-74
2022/10/18 11:32:23;;;;;;;;;;;14.30;99.90;;;;;;5092442;28;20411;-75
2022/10/18 11:35:07;;;;;;;;;;;14.40;99.90;;;;;;5093089;28;19908;-74
2022/10/18 11:37:49;;;;;;;;;;;14.50;99.90;;;;;;5093035;28;20395;-74
2022/10/18 11:40:27;;;;;;;;;;;14.60;99.90;;;;;;5092360;28;19920;-74
2022/10/18 11:42:56;;;;;;;;;;;14.70;99.90;;;;;;5092656;28;19908;-74
2022/10/18 11:45:24;;;;;;;;;;;14.70;99.90;;;;;;5092405;28;20003;-75
2022/10/18 11:48:08;;;;;;;;;;;14.70;99.90;;;;;;5093144;28;19995;-74
2022/10/18 11:50:43;;;;;;;;;;;14.70;99.90;;;;;;5092901;28;19913;-75
2022/10/18 11:53:21;;;;;;;;;;;14.70;99.90;;;;;;5091040;28;19908;-74
2022/10/18 11:56:09;;;;;;;;;;;14.70;99.90;;;;;;5092675;28;19909;-74
2022/10/18 11:58:35;;;;;;;;;;;14.60;99.90;;;;;;5092613;28;19982;-74
2022/10/18 12:01:11;;;;;;;;;;;14.50;99.90;;;;;;5092445;28;20373;-74
2022/10/18 12:03:49;;;;;;;;;;;14.50;99.90;;;;;;5092862;28;19908;-74
2022/10/18 12:06:16;;;;;;;;;;;14.40;99.90;;;;;;5092097;28;19967;-76
2022/10/18 12:08:46;;;;;;;;;;;14.40;99.90;;;;;;5092810;28;19908;-75
2022/10/18 12:11:14;;;;;;;;;;;14.40;99.90;;;;;;5092238;28;19915;-75
2022/10/18 12:13:40;;;;;;;;;;;14.40;99.90;;;;;;5091179;28;20336;-74
2022/10/18 12:16:06;;;;;;;;;;;14.40;99.90;;;;;;5092233;28;19908;-74
2022/10/18 12:18:32;;;;;;;;;;;14.40;99.90;;;;;;5092633;28;19916;-75
2022/10/18 12:20:58;;;;;;;;;;;14.40;99.90;;;;;;5087090;28;19999;-75
2022/10/18 12:23:30;;;;;;;;;;;14.50;99.90;;;;;;5071343;28;19999;-74
2022/10/18 12:26:00;;;;;;;;;;;14.50;99.90;;;;;;5082775;28;19951;-74
2022/10/18 12:28:28;;;;;;;;;;;14.40;99.90;;;;;;5091941;28;19915;-74
2022/10/18 12:31:03;;;;;;;;;;;14.40;99.90;;;;;;5092202;28;19928;-75
2022/10/18 12:33:34;;;;;;;;;;;14.30;99.90;;;;;;5091704;28;19908;-74
2022/10/18 12:36:10;;;;;;;;;;;14.40;99.90;;;;;;5090896;28;19952;-75
2022/10/18 12:38:37;;;;;;;;;;;14.30;99.90;;;;;;5092032;28;19923;-75
2022/10/18 12:41:03;;;;;;;;;;;14.30;99.90;;;;;;5091552;28;19908;-74
2022/10/18 12:43:35;;;;;;;;;;;14.40;99.90;;;;;;5091098;28;19909;-73
2022/10/18 12:46:02;;;;;;;;;;;14.30;99.90;;;;;;5095584;28;19915;-75
2022/10/18 12:48:28;;;;;;;;;;;14.30;99.90;;;;;;5094836;28;19908;-74
2022/10/18 12:51:13;;;;;;;;;;;14.30;99.90;;;;;;5099832;28;19919;-74
2022/10/18 12:53:40;;;;;;;;;;;14.30;99.90;;;;;;5113827;28;19908;-74
2022/10/18 12:56:25;;;;;;;;;;;14.20;99.90;;;;;;5104321;28;19912;-75
2022/10/18 12:58:50;;;;;;;;;;;14.20;99.90;;;;;;5097593;28;19923;-75
2022/10/18 13:01:16;;;;;;;;;;;14.20;99.90;;;;;;5096244;28;20392;-74
2022/10/18 13:03:52;;;;;;;;;;;14.10;99.90;;;;;;5097549;28;19991;-76
2022/10/18 13:06:18;;;;;;;;;;;14.10;99.90;;;;;;5095517;28;19915;-75
2022/10/18 13:08:44;;;;;;;;;;;14.10;99.90;;;;;;5094844;28;19909;-74
2022/10/18 13:11:10;;;;;;;;;;;14.00;99.90;;;;;;5095698;28;19915;-76
2022/10/18 13:13:35;;;;;;;;;;;14.10;99.90;;;;;;5095466;28;20003;-75
2022/10/18 13:16:03;;;;;;;;;;;14.10;99.90;;;;;;5095651;28;19908;-76
2022/10/18 13:18:31;;;;;;;;;;;14.20;99.90;;;;;;5095015;28;19961;-75
2022/10/18 13:21:29;;;;;;;;;;;14.10;99.90;;;;;;5096011;28;19919;-75
2022/10/18 13:24:07;;;;;;;;;;;14.30;99.90;;;;;;5060442;28;20011;-75
2022/10/18 13:26:38;;;;;;;;;;;14.30;99.90;;;;;;5093626;28;19921;-74
2022/10/18 13:29:04;;;;;;;;;;;14.30;99.90;;;;;;5095035;28;19916;-74
2022/10/18 13:31:54;;;;;;;;;;;14.30;99.90;;;;;;5093831;28;19920;-74
2022/10/18 13:34:24;;;;;;;;;;;14.50;99.90;;;;;;5094238;28;19908;-74
2022/10/18 13:37:03;;;;;;;;;;;14.40;99.90;;;;;;5094697;28;19908;-75
2022/10/18 13:39:30;;;;;;;;;;;14.50;99.90;;;;;;5093804;28;19917;-74
2022/10/18 13:41:55;;;;;;;;;;;14.40;99.90;;;;;;5093971;28;19915;-74
2022/10/18 13:44:27;;;;;;;;;;;14.50;99.90;;;;;;5093740;28;19908;-75
2022/10/18 13:46:53;;;;;;;;;;;14.50;99.90;;;;;;5094025;28;19912;-74
2022/10/18 13:49:37;;;;;;;;;;;14.50;99.90;;;;;;5093552;28;20266;-75
2022/10/18 13:52:11;;;;;;;;;;;14.50;99.90;;;;;;5094361;28;19914;-74
2022/10/18 13:54:52;;;;;;;;;;;14.70;99.90;;;;;;5093796;28;19919;-73
2022/10/18 13:57:35;;;;;;;;;;;14.60;99.90;;;;;;5093477;28;19915;-75
2022/10/18 14:00:07;;;;;;;;;;;14.60;99.90;;;;;;5094108;28;20015;-75
2022/10/18 14:02:38;;;;;;;;;;;14.60;99.90;;;;;;5093898;28;19908;-74
2022/10/18 14:05:04;;;;;;;;;;;14.60;99.90;;;;;;5092728;28;20393;-75
2022/10/18 14:07:30;;;;;;;;;;;14.60;99.90;;;;;;5093054;28;19908;-74
2022/10/18 14:09:57;;;;;;;;;;;14.50;99.90;;;;;;5093792;28;19961;-74
2022/10/18 14:12:27;;;;;;;;;;;14.50;99.90;;;;;;5093175;28;19908;-75
2022/10/18 14:15:03;;;;;;;;;;;14.40;99.90;;;;;;5093493;28;20275;-75
2022/10/18 14:17:29;;;;;;;;;;;14.40;99.90;;;;;;5092996;28;19908;-74
2022/10/18 14:20:00;;;;;;;;;;;14.30;99.90;;;;;;5092252;28;20015;-75
2022/10/18 14:22:39;;;;;;;;;;;14.30;99.90;;;;;;5093291;28;19908;-75
2022/10/18 14:25:17;;;;;;;;;;;14.30;99.90;;;;;;5093429;28;19919;-75
2022/10/18 14:27:43;;;;;;;;;;;14.30;99.90;;;;;;5091859;28;19959;-76
2022/10/18 14:30:19;;;;;;;;;;;14.20;99.90;;;;;;5092404;28;19967;-73
2022/10/18 14:32:49;;;;;;;;;;;14.30;99.90;;;;;;5092394;28;19912;-76
2022/10/18 14:35:16;;;;;;;;;;;14.30;99.90;;;;;;5090968;28;20361;-76